sensor_id;sensor_type;location;lat;lon;timestamp;P1;durP1;ratioP1;P2;durP2;ratioP2
4049;SDS011;2039;50.894;6.888;2023-03-16T00:03:19;73.53;;;9.70;;
4049;SDS011;2039;50.894;6.888;2023-03-16T00:05:57;70.40;;;8.68;;
4049;SDS011;2039;50.894;6.888;2023-03-16T00:09:20;71.93;;;9.52;;
4049;SDS011;2039;50.894;6.888;2023-03-16T00:12:15;70.90;;;10.20;;
4049;SDS011;2039;50.894;6.888;2023-03-16T00:15:30;73.30;;;10.98;;
4049;SDS011;2039;50.894;6.888;2023-03-16T00:18:34;69.57;;;9.95;;
4049;SDS011;2039;50.894;6.888;2023-03-16T00:21:24;75.45;;;11.13;;
4049;SDS011;2039;50.894;6.888;2023-03-16T00:34:14;72.07;;;12.93;;
4049;SDS011;2039;50.894;6.888;2023-03-16T00:37:23;76.22;;;16.50;;
4049;SDS011;2039;50.894;6.888;2023-03-16T00:46:51;75.15;;;20.45;;
4049;SDS011;2039;50.894;6.888;2023-03-16T01:12:11;73.07;;;10.38;;
4049;SDS011;2039;50.894;6.888;2023-03-16T01:15:08;69.85;;;9.43;;
4049;SDS011;2039;50.894;6.888;2023-03-16T01:17:50;68.70;;;9.25;;
4049;SDS011;2039;50.894;6.888;2023-03-16T01:20:39;70.78;;;10.20;;
4049;SDS011;2039;50.894;6.888;2023-03-16T01:27:05;78.40;;;10.50;;
4049;SDS011;2039;50.894;6.888;2023-03-16T01:30:20;70.90;;;14.50;;
4049;SDS011;2039;50.894;6.888;2023-03-16T01:33:28;73.35;;;15.05;;
4049;SDS011;2039;50.894;6.888;2023-03-16T01:39:15;71.32;;;17.45;;
4049;SDS011;2039;50.894;6.888;2023-03-16T01:42:08;72.43;;;15.02;;
4049;SDS011;2039;50.894;6.888;2023-03-16T01:48:41;72.55;;;17.08;;
4049;SDS011;2039;50.894;6.888;2023-03-16T01:51:57;73.32;;;15.80;;
4049;SDS011;2039;50.894;6.888;2023-03-16T01:55:07;70.35;;;15.18;;
4049;SDS011;2039;50.894;6.888;2023-03-16T02:01:39;70.25;;;14.73;;
4049;SDS011;2039;50.894;6.888;2023-03-16T02:07:37;71.03;;;13.45;;
4049;SDS011;2039;50.894;6.888;2023-03-16T02:13:32;71.32;;;14.15;;
4049;SDS011;2039;50.894;6.888;2023-03-16T02:16:49;72.32;;;15.85;;
4049;SDS011;2039;50.894;6.888;2023-03-16T02:33:41;73.00;;;18.95;;
4049;SDS011;2039;50.894;6.888;2023-03-16T02:36:44;70.22;;;19.42;;
4049;SDS011;2039;50.894;6.888;2023-03-16T02:40:12;74.25;;;18.42;;
4049;SDS011;2039;50.894;6.888;2023-03-16T02:53:41;67.55;;;11.85;;
4049;SDS011;2039;50.894;6.888;2023-03-16T02:56:40;68.28;;;12.48;;
4049;SDS011;2039;50.894;6.888;2023-03-16T03:00:11;69.50;;;9.07;;
4049;SDS011;2039;50.894;6.888;2023-03-16T03:09:22;69.47;;;9.93;;
4049;SDS011;2039;50.894;6.888;2023-03-16T03:12:36;68.30;;;8.32;;
4049;SDS011;2039;50.894;6.888;2023-03-16T03:19:36;70.15;;;10.15;;
4049;SDS011;2039;50.894;6.888;2023-03-16T03:28:58;73.60;;;16.23;;
4049;SDS011;2039;50.894;6.888;2023-03-16T03:38:33;75.55;;;14.23;;
4049;SDS011;2039;50.894;6.888;2023-03-16T03:41:27;71.75;;;11.15;;
4049;SDS011;2039;50.894;6.888;2023-03-16T03:44:32;71.60;;;16.35;;
4049;SDS011;2039;50.894;6.888;2023-03-16T03:48:14;69.95;;;15.02;;
4049;SDS011;2039;50.894;6.888;2023-03-16T03:57:32;71.60;;;17.73;;
4049;SDS011;2039;50.894;6.888;2023-03-16T04:07:07;72.20;;;18.73;;
4049;SDS011;2039;50.894;6.888;2023-03-16T04:10:16;73.70;;;16.55;;
4049;SDS011;2039;50.894;6.888;2023-03-16T04:16:56;71.82;;;13.02;;
4049;SDS011;2039;50.894;6.888;2023-03-16T04:20:12;69.63;;;14.25;;
4049;SDS011;2039;50.894;6.888;2023-03-16T04:57:19;71.88;;;14.70;;
4049;SDS011;2039;50.894;6.888;2023-03-16T05:03:33;72.38;;;14.20;;
4049;SDS011;2039;50.894;6.888;2023-03-16T05:06:45;70.93;;;16.83;;
4049;SDS011;2039;50.894;6.888;2023-03-16T05:10:43;77.40;;;20.38;;
4049;SDS011;2039;50.894;6.888;2023-03-16T05:13:25;73.57;;;21.20;;
4049;SDS011;2039;50.894;6.888;2023-03-16T05:16:44;75.03;;;22.55;;
4049;SDS011;2039;50.894;6.888;2023-03-16T05:20:01;73.47;;;21.67;;
4049;SDS011;2039;50.894;6.888;2023-03-16T05:23:09;74.05;;;20.27;;
4049;SDS011;2039;50.894;6.888;2023-03-16T05:36:03;72.40;;;14.43;;
4049;SDS011;2039;50.894;6.888;2023-03-16T05:42:27;74.10;;;18.60;;
4049;SDS011;2039;50.894;6.888;2023-03-16T05:44:53;75.73;;;19.67;;
4049;SDS011;2039;50.894;6.888;2023-03-16T05:47:19;73.63;;;19.00;;
4049;SDS011;2039;50.894;6.888;2023-03-16T05:49:45;72.15;;;16.25;;
4049;SDS011;2039;50.894;6.888;2023-03-16T05:52:10;72.47;;;18.07;;
4049;SDS011;2039;50.894;6.888;2023-03-16T05:54:36;74.33;;;18.03;;
4049;SDS011;2039;50.894;6.888;2023-03-16T05:57:02;74.40;;;15.97;;
4049;SDS011;2039;50.894;6.888;2023-03-16T05:59:30;71.78;;;16.95;;
4049;SDS011;2039;50.894;6.888;2023-03-16T06:01:56;70.97;;;12.23;;
4049;SDS011;2039;50.894;6.888;2023-03-16T06:04:22;70.87;;;13.67;;
4049;SDS011;2039;50.894;6.888;2023-03-16T06:06:47;72.50;;;13.07;;
4049;SDS011;2039;50.894;6.888;2023-03-16T06:09:13;71.90;;;12.27;;
4049;SDS011;2039;50.894;6.888;2023-03-16T06:11:39;71.07;;;13.07;;
4049;SDS011;2039;50.894;6.888;2023-03-16T06:14:04;71.77;;;11.50;;
4049;SDS011;2039;50.894;6.888;2023-03-16T06:16:30;72.20;;;13.83;;
4049;SDS011;2039;50.894;6.888;2023-03-16T06:18:55;70.87;;;11.17;;
4049;SDS011;2039;50.894;6.888;2023-03-16T06:21:21;72.23;;;11.57;;
4049;SDS011;2039;50.894;6.888;2023-03-16T06:23:47;75.15;;;8.45;;
4049;SDS011;2039;50.894;6.888;2023-03-16T06:26:16;70.40;;;11.30;;
4049;SDS011;2039;50.894;6.888;2023-03-16T06:28:42;70.28;;;10.57;;
4049;SDS011;2039;50.894;6.888;2023-03-16T06:31:07;71.50;;;9.80;;
4049;SDS011;2039;50.894;6.888;2023-03-16T06:33:33;71.23;;;10.87;;
4049;SDS011;2039;50.894;6.888;2023-03-16T06:35:58;72.73;;;11.70;;
4049;SDS011;2039;50.894;6.888;2023-03-16T06:38:25;76.03;;;15.07;;
4049;SDS011;2039;50.894;6.888;2023-03-16T06:40:52;71.17;;;10.77;;
4049;SDS011;2039;50.894;6.888;2023-03-16T06:43:18;73.43;;;10.10;;
4049;SDS011;2039;50.894;6.888;2023-03-16T06:45:44;70.83;;;10.50;;
4049;SDS011;2039;50.894;6.888;2023-03-16T06:48:10;72.50;;;11.10;;
4049;SDS011;2039;50.894;6.888;2023-03-16T06:50:36;71.97;;;9.40;;
4049;SDS011;2039;50.894;6.888;2023-03-16T06:53:01;71.47;;;10.68;;
4049;SDS011;2039;50.894;6.888;2023-03-16T06:55:27;70.20;;;8.53;;
4049;SDS011;2039;50.894;6.888;2023-03-16T06:57:53;74.80;;;9.67;;
4049;SDS011;2039;50.894;6.888;2023-03-16T07:00:19;74.32;;;9.63;;
4049;SDS011;2039;50.894;6.888;2023-03-16T07:02:45;70.07;;;8.47;;
4049;SDS011;2039;50.894;6.888;2023-03-16T07:05:11;71.20;;;9.80;;
4049;SDS011;2039;50.894;6.888;2023-03-16T07:07:40;71.10;;;9.90;;
4049;SDS011;2039;50.894;6.888;2023-03-16T07:10:14;70.25;;;8.45;;
4049;SDS011;2039;50.894;6.888;2023-03-16T07:12:41;70.05;;;8.00;;
4049;SDS011;2039;50.894;6.888;2023-03-16T07:15:08;70.68;;;8.80;;
4049;SDS011;2039;50.894;6.888;2023-03-16T07:17:34;69.03;;;7.85;;
4049;SDS011;2039;50.894;6.888;2023-03-16T07:19:59;70.27;;;8.60;;
4049;SDS011;2039;50.894;6.888;2023-03-16T07:22:29;73.28;;;8.27;;
4049;SDS011;2039;50.894;6.888;2023-03-16T07:24:56;73.05;;;8.38;;
4049;SDS011;2039;50.894;6.888;2023-03-16T07:27:22;68.75;;;8.15;;
4049;SDS011;2039;50.894;6.888;2023-03-16T07:29:49;70.18;;;7.72;;
4049;SDS011;2039;50.894;6.888;2023-03-16T07:32:19;70.28;;;8.07;;
4049;SDS011;2039;50.894;6.888;2023-03-16T07:34:45;69.60;;;7.75;;
4049;SDS011;2039;50.894;6.888;2023-03-16T07:37:11;73.67;;;8.20;;
4049;SDS011;2039;50.894;6.888;2023-03-16T07:39:37;69.37;;;7.93;;
4049;SDS011;2039;50.894;6.888;2023-03-16T07:42:06;71.38;;;7.50;;
4049;SDS011;2039;50.894;6.888;2023-03-16T07:44:32;68.32;;;8.15;;
4049;SDS011;2039;50.894;6.888;2023-03-16T07:46:58;72.30;;;8.23;;
4049;SDS011;2039;50.894;6.888;2023-03-16T07:49:23;69.10;;;7.97;;
4049;SDS011;2039;50.894;6.888;2023-03-16T07:51:49;71.40;;;7.90;;
4049;SDS011;2039;50.894;6.888;2023-03-16T07:54:15;68.97;;;8.03;;
4049;SDS011;2039;50.894;6.888;2023-03-16T07:56:41;69.97;;;8.43;;
4049;SDS011;2039;50.894;6.888;2023-03-16T07:59:06;70.80;;;8.53;;
4049;SDS011;2039;50.894;6.888;2023-03-16T08:01:32;70.47;;;8.83;;
4049;SDS011;2039;50.894;6.888;2023-03-16T08:03:58;69.77;;;7.80;;
4049;SDS011;2039;50.894;6.888;2023-03-16T08:06:25;72.55;;;8.93;;
4049;SDS011;2039;50.894;6.888;2023-03-16T08:08:52;70.22;;;8.27;;
4049;SDS011;2039;50.894;6.888;2023-03-16T08:11:18;72.63;;;8.07;;
4049;SDS011;2039;50.894;6.888;2023-03-16T08:13:50;70.80;;;7.75;;
4049;SDS011;2039;50.894;6.888;2023-03-16T08:16:20;70.10;;;7.75;;
4049;SDS011;2039;50.894;6.888;2023-03-16T08:18:47;71.22;;;8.70;;
4049;SDS011;2039;50.894;6.888;2023-03-16T08:21:14;69.63;;;7.53;;
4049;SDS011;2039;50.894;6.888;2023-03-16T08:23:41;69.82;;;7.88;;
4049;SDS011;2039;50.894;6.888;2023-03-16T08:26:11;69.10;;;7.10;;
4049;SDS011;2039;50.894;6.888;2023-03-16T08:28:37;72.13;;;7.43;;
4049;SDS011;2039;50.894;6.888;2023-03-16T08:31:02;72.17;;;8.13;;
4049;SDS011;2039;50.894;6.888;2023-03-16T08:33:34;71.40;;;7.13;;
4049;SDS011;2039;50.894;6.888;2023-03-16T08:36:00;72.85;;;8.55;;
4049;SDS011;2039;50.894;6.888;2023-03-16T08:38:33;71.15;;;7.43;;
4049;SDS011;2039;50.894;6.888;2023-03-16T08:40:59;70.35;;;7.80;;
4049;SDS011;2039;50.894;6.888;2023-03-16T08:43:26;68.05;;;6.55;;
4049;SDS011;2039;50.894;6.888;2023-03-16T08:45:52;69.93;;;7.55;;
4049;SDS011;2039;50.894;6.888;2023-03-16T08:48:18;68.80;;;7.77;;
4049;SDS011;2039;50.894;6.888;2023-03-16T08:50:44;68.10;;;7.10;;
4049;SDS011;2039;50.894;6.888;2023-03-16T08:53:13;68.22;;;7.10;;
4049;SDS011;2039;50.894;6.888;2023-03-16T08:55:39;71.18;;;7.10;;
4049;SDS011;2039;50.894;6.888;2023-03-16T08:58:06;68.30;;;6.85;;
4049;SDS011;2039;50.894;6.888;2023-03-16T09:00:33;69.15;;;6.57;;
4049;SDS011;2039;50.894;6.888;2023-03-16T09:02:59;69.30;;;7.30;;
4049;SDS011;2039;50.894;6.888;2023-03-16T09:05:26;67.18;;;6.38;;
4049;SDS011;2039;50.894;6.888;2023-03-16T09:07:52;73.88;;;8.77;;
4049;SDS011;2039;50.894;6.888;2023-03-16T09:10:18;73.20;;;8.50;;
4049;SDS011;2039;50.894;6.888;2023-03-16T09:12:47;70.25;;;7.60;;
4049;SDS011;2039;50.894;6.888;2023-03-16T09:15:14;70.05;;;7.40;;
4049;SDS011;2039;50.894;6.888;2023-03-16T09:17:40;67.00;;;5.57;;
4049;SDS011;2039;50.894;6.888;2023-03-16T09:20:07;70.95;;;7.15;;
4049;SDS011;2039;50.894;6.888;2023-03-16T09:22:35;69.43;;;7.05;;
4049;SDS011;2039;50.894;6.888;2023-03-16T09:25:02;69.15;;;7.50;;
4049;SDS011;2039;50.894;6.888;2023-03-16T09:27:30;72.88;;;7.40;;
4049;SDS011;2039;50.894;6.888;2023-03-16T09:30:05;69.30;;;6.50;;
4049;SDS011;2039;50.894;6.888;2023-03-16T09:32:34;68.30;;;6.55;;
4049;SDS011;2039;50.894;6.888;2023-03-16T09:35:01;69.82;;;7.70;;
4049;SDS011;2039;50.894;6.888;2023-03-16T09:37:27;69.68;;;7.22;;
4049;SDS011;2039;50.894;6.888;2023-03-16T09:39:53;68.90;;;6.97;;
4049;SDS011;2039;50.894;6.888;2023-03-16T09:48:00;77.40;;;6.65;;
4049;SDS011;2039;50.894;6.888;2023-03-16T09:50:33;69.80;;;6.45;;
4049;SDS011;2039;50.894;6.888;2023-03-16T09:53:23;68.97;;;7.05;;
4049;SDS011;2039;50.894;6.888;2023-03-16T09:56:09;68.50;;;6.60;;
4049;SDS011;2039;50.894;6.888;2023-03-16T10:06:59;76.88;;;7.20;;
4049;SDS011;2039;50.894;6.888;2023-03-16T10:09:39;69.38;;;7.13;;
4049;SDS011;2039;50.894;6.888;2023-03-16T10:12:11;68.63;;;6.43;;
4049;SDS011;2039;50.894;6.888;2023-03-16T10:14:51;70.30;;;6.60;;
4049;SDS011;2039;50.894;6.888;2023-03-16T10:19:53;70.32;;;7.95;;
4049;SDS011;2039;50.894;6.888;2023-03-16T10:22:33;69.70;;;7.07;;
4049;SDS011;2039;50.894;6.888;2023-03-16T10:27:40;70.47;;;7.57;;
4049;SDS011;2039;50.894;6.888;2023-03-16T10:30:26;69.15;;;7.60;;
4049;SDS011;2039;50.894;6.888;2023-03-16T10:33:11;75.60;;;8.23;;
4049;SDS011;2039;50.894;6.888;2023-03-16T10:35:48;69.43;;;6.65;;
4049;SDS011;2039;50.894;6.888;2023-03-16T10:38:28;70.30;;;7.18;;
4049;SDS011;2039;50.894;6.888;2023-03-16T10:40:57;75.47;;;7.13;;
4049;SDS011;2039;50.894;6.888;2023-03-16T10:43:24;71.85;;;7.53;;
4049;SDS011;2039;50.894;6.888;2023-03-16T10:45:50;69.97;;;6.93;;
4049;SDS011;2039;50.894;6.888;2023-03-16T10:48:16;68.00;;;6.93;;
4049;SDS011;2039;50.894;6.888;2023-03-16T10:50:48;70.60;;;6.95;;
4049;SDS011;2039;50.894;6.888;2023-03-16T10:53:22;68.55;;;6.45;;
4049;SDS011;2039;50.894;6.888;2023-03-16T10:56:08;67.80;;;6.50;;
4049;SDS011;2039;50.894;6.888;2023-03-16T10:58:38;71.68;;;5.97;;
4049;SDS011;2039;50.894;6.888;2023-03-16T11:01:25;68.43;;;6.10;;
4049;SDS011;2039;50.894;6.888;2023-03-16T11:03:53;69.20;;;6.90;;
4049;SDS011;2039;50.894;6.888;2023-03-16T11:06:27;68.72;;;7.30;;
4049;SDS011;2039;50.894;6.888;2023-03-16T11:09:01;71.57;;;7.60;;
4049;SDS011;2039;50.894;6.888;2023-03-16T11:11:32;72.57;;;7.90;;
4049;SDS011;2039;50.894;6.888;2023-03-16T11:13:59;71.35;;;7.25;;
4049;SDS011;2039;50.894;6.888;2023-03-16T11:16:48;71.05;;;7.30;;
4049;SDS011;2039;50.894;6.888;2023-03-16T11:19:49;68.32;;;6.40;;
4049;SDS011;2039;50.894;6.888;2023-03-16T11:22:25;70.35;;;7.13;;
4049;SDS011;2039;50.894;6.888;2023-03-16T11:30:23;68.63;;;6.32;;
4049;SDS011;2039;50.894;6.888;2023-03-16T11:33:02;70.75;;;7.03;;
4049;SDS011;2039;50.894;6.888;2023-03-16T11:44:22;68.15;;;6.70;;
4049;SDS011;2039;50.894;6.888;2023-03-16T11:47:00;71.18;;;7.13;;
4049;SDS011;2039;50.894;6.888;2023-03-16T11:50:16;70.35;;;5.90;;
4049;SDS011;2039;50.894;6.888;2023-03-16T11:56:22;68.90;;;5.50;;
4049;SDS011;2039;50.894;6.888;2023-03-16T12:12:27;66.55;;;4.82;;
4049;SDS011;2039;50.894;6.888;2023-03-16T12:17:32;66.97;;;4.68;;
4049;SDS011;2039;50.894;6.888;2023-03-16T12:20:03;66.93;;;5.28;;
4049;SDS011;2039;50.894;6.888;2023-03-16T12:22:42;66.45;;;5.93;;
4049;SDS011;2039;50.894;6.888;2023-03-16T12:25:18;69.07;;;4.65;;
4049;SDS011;2039;50.894;6.888;2023-03-16T12:27:49;66.40;;;4.65;;
4049;SDS011;2039;50.894;6.888;2023-03-16T12:36:01;66.35;;;4.70;;
4049;SDS011;2039;50.894;6.888;2023-03-16T12:38:44;65.00;;;4.10;;
4049;SDS011;2039;50.894;6.888;2023-03-16T12:41:38;66.85;;;5.18;;
4049;SDS011;2039;50.894;6.888;2023-03-16T12:44:25;65.88;;;4.75;;
4049;SDS011;2039;50.894;6.888;2023-03-16T12:49:48;67.95;;;5.00;;
4049;SDS011;2039;50.894;6.888;2023-03-16T12:52:16;65.95;;;4.55;;
4049;SDS011;2039;50.894;6.888;2023-03-16T12:57:16;68.05;;;4.57;;
4049;SDS011;2039;50.894;6.888;2023-03-16T12:59:43;66.43;;;4.60;;
4049;SDS011;2039;50.894;6.888;2023-03-16T13:02:16;64.90;;;4.10;;
4049;SDS011;2039;50.894;6.888;2023-03-16T13:04:44;65.70;;;4.50;;
4049;SDS011;2039;50.894;6.888;2023-03-16T13:07:16;68.15;;;4.90;;
4049;SDS011;2039;50.894;6.888;2023-03-16T13:09:50;66.25;;;4.15;;
4049;SDS011;2039;50.894;6.888;2023-03-16T13:12:41;65.97;;;4.53;;
4049;SDS011;2039;50.894;6.888;2023-03-16T13:15:14;65.65;;;4.63;;
4049;SDS011;2039;50.894;6.888;2023-03-16T13:17:43;68.90;;;4.75;;
4049;SDS011;2039;50.894;6.888;2023-03-16T13:22:45;66.10;;;4.23;;
4049;SDS011;2039;50.894;6.888;2023-03-16T13:25:33;66.95;;;4.57;;
4049;SDS011;2039;50.894;6.888;2023-03-16T13:28:04;70.78;;;4.50;;
4049;SDS011;2039;50.894;6.888;2023-03-16T13:30:33;65.90;;;4.35;;
4049;SDS011;2039;50.894;6.888;2023-03-16T13:35:48;69.38;;;5.03;;
4049;SDS011;2039;50.894;6.888;2023-03-16T13:38:17;65.13;;;4.70;;
4049;SDS011;2039;50.894;6.888;2023-03-16T13:40:50;64.60;;;4.43;;
4049;SDS011;2039;50.894;6.888;2023-03-16T13:43:20;65.60;;;4.55;;
4049;SDS011;2039;50.894;6.888;2023-03-16T13:45:47;68.05;;;4.55;;
4049;SDS011;2039;50.894;6.888;2023-03-16T13:48:16;65.05;;;3.90;;
4049;SDS011;2039;50.894;6.888;2023-03-16T13:50:49;67.95;;;5.10;;
4049;SDS011;2039;50.894;6.888;2023-03-16T13:53:22;67.70;;;4.35;;
4049;SDS011;2039;50.894;6.888;2023-03-16T13:55:52;66.43;;;4.80;;
4049;SDS011;2039;50.894;6.888;2023-03-16T13:58:21;65.32;;;3.97;;
4049;SDS011;2039;50.894;6.888;2023-03-16T14:01:00;66.45;;;3.80;;
4049;SDS011;2039;50.894;6.888;2023-03-16T14:03:32;65.85;;;3.80;;
4049;SDS011;2039;50.894;6.888;2023-03-16T14:06:00;64.95;;;4.30;;
4049;SDS011;2039;50.894;6.888;2023-03-16T14:08:28;69.40;;;5.50;;
4049;SDS011;2039;50.894;6.888;2023-03-16T14:10:54;65.38;;;4.22;;
4049;SDS011;2039;50.894;6.888;2023-03-16T14:13:22;65.55;;;4.50;;
4049;SDS011;2039;50.894;6.888;2023-03-16T14:16:02;67.22;;;4.47;;
4049;SDS011;2039;50.894;6.888;2023-03-16T14:18:36;69.50;;;4.35;;
4049;SDS011;2039;50.894;6.888;2023-03-16T14:21:18;66.70;;;4.40;;
4049;SDS011;2039;50.894;6.888;2023-03-16T14:23:50;66.85;;;4.05;;
4049;SDS011;2039;50.894;6.888;2023-03-16T14:26:22;66.95;;;5.55;;
4049;SDS011;2039;50.894;6.888;2023-03-16T14:28:55;65.25;;;3.85;;
4049;SDS011;2039;50.894;6.888;2023-03-16T14:31:40;64.40;;;3.53;;
4049;SDS011;2039;50.894;6.888;2023-03-16T14:34:17;66.20;;;3.70;;
4049;SDS011;2039;50.894;6.888;2023-03-16T14:37:03;68.03;;;4.50;;
4049;SDS011;2039;50.894;6.888;2023-03-16T14:42:53;70.85;;;4.13;;
4049;SDS011;2039;50.894;6.888;2023-03-16T14:45:25;67.50;;;6.03;;
4049;SDS011;2039;50.894;6.888;2023-03-16T14:54:15;66.00;;;3.97;;
4049;SDS011;2039;50.894;6.888;2023-03-16T14:57:04;65.00;;;3.75;;
4049;SDS011;2039;50.894;6.888;2023-03-16T15:00:12;66.75;;;4.90;;
4049;SDS011;2039;50.894;6.888;2023-03-16T15:06:54;66.28;;;4.68;;
4049;SDS011;2039;50.894;6.888;2023-03-16T15:10:44;65.65;;;4.30;;
4049;SDS011;2039;50.894;6.888;2023-03-16T15:16:43;69.32;;;4.22;;
4049;SDS011;2039;50.894;6.888;2023-03-16T15:22:35;70.78;;;4.05;;
4049;SDS011;2039;50.894;6.888;2023-03-16T15:28:20;65.13;;;4.10;;
4049;SDS011;2039;50.894;6.888;2023-03-16T15:31:34;66.75;;;3.90;;
4049;SDS011;2039;50.894;6.888;2023-03-16T15:34:41;68.82;;;6.45;;
4049;SDS011;2039;50.894;6.888;2023-03-16T15:49:48;65.20;;;4.05;;
4049;SDS011;2039;50.894;6.888;2023-03-16T15:52:21;66.78;;;4.53;;
4049;SDS011;2039;50.894;6.888;2023-03-16T15:58:18;66.80;;;4.88;;
4049;SDS011;2039;50.894;6.888;2023-03-16T16:00:54;67.90;;;4.40;;
4049;SDS011;2039;50.894;6.888;2023-03-16T16:03:30;66.32;;;4.75;;
4049;SDS011;2039;50.894;6.888;2023-03-16T16:05:59;67.72;;;5.18;;
4049;SDS011;2039;50.894;6.888;2023-03-16T16:08:54;67.05;;;4.78;;
4049;SDS011;2039;50.894;6.888;2023-03-16T16:11:32;66.43;;;5.10;;
4049;SDS011;2039;50.894;6.888;2023-03-16T16:14:22;67.43;;;6.03;;
4049;SDS011;2039;50.894;6.888;2023-03-16T16:17:19;68.20;;;5.55;;
4049;SDS011;2039;50.894;6.888;2023-03-16T16:20:16;67.05;;;5.35;;
4049;SDS011;2039;50.894;6.888;2023-03-16T16:23:00;66.90;;;5.10;;
4049;SDS011;2039;50.894;6.888;2023-03-16T16:25:41;67.55;;;5.45;;
4049;SDS011;2039;50.894;6.888;2023-03-16T16:32:19;70.32;;;6.10;;
4049;SDS011;2039;50.894;6.888;2023-03-16T16:34:51;67.30;;;5.55;;
4049;SDS011;2039;50.894;6.888;2023-03-16T16:37:46;67.05;;;5.35;;
4049;SDS011;2039;50.894;6.888;2023-03-16T16:40:20;69.25;;;5.28;;
4049;SDS011;2039;50.894;6.888;2023-03-16T16:43:12;68.25;;;5.80;;
4049;SDS011;2039;50.894;6.888;2023-03-16T16:46:21;70.28;;;5.53;;
4049;SDS011;2039;50.894;6.888;2023-03-16T16:49:25;66.70;;;4.85;;
4049;SDS011;2039;50.894;6.888;2023-03-16T16:51:58;68.30;;;5.22;;
4049;SDS011;2039;50.894;6.888;2023-03-16T16:54:29;69.85;;;5.90;;
4049;SDS011;2039;50.894;6.888;2023-03-16T16:57:08;68.25;;;5.35;;
4049;SDS011;2039;50.894;6.888;2023-03-16T17:00:20;66.63;;;5.13;;
4049;SDS011;2039;50.894;6.888;2023-03-16T17:03:18;68.80;;;5.95;;
4049;SDS011;2039;50.894;6.888;2023-03-16T17:05:57;67.15;;;5.18;;
4049;SDS011;2039;50.894;6.888;2023-03-16T17:08:26;68.65;;;5.60;;
4049;SDS011;2039;50.894;6.888;2023-03-16T17:11:01;68.15;;;5.28;;
4049;SDS011;2039;50.894;6.888;2023-03-16T17:13:49;67.22;;;6.00;;
4049;SDS011;2039;50.894;6.888;2023-03-16T17:16:27;69.63;;;6.25;;
4049;SDS011;2039;50.894;6.888;2023-03-16T17:19:24;68.43;;;5.65;;
4049;SDS011;2039;50.894;6.888;2023-03-16T17:22:01;66.60;;;5.22;;
4049;SDS011;2039;50.894;6.888;2023-03-16T17:24:47;69.45;;;5.90;;
4049;SDS011;2039;50.894;6.888;2023-03-16T17:27:28;67.35;;;5.35;;
4049;SDS011;2039;50.894;6.888;2023-03-16T17:33:09;69.00;;;6.20;;
4049;SDS011;2039;50.894;6.888;2023-03-16T17:35:44;68.55;;;5.90;;
4049;SDS011;2039;50.894;6.888;2023-03-16T17:38:21;70.05;;;5.88;;
4049;SDS011;2039;50.894;6.888;2023-03-16T17:40:54;68.00;;;6.05;;
4049;SDS011;2039;50.894;6.888;2023-03-16T17:43:23;66.85;;;5.32;;
4049;SDS011;2039;50.894;6.888;2023-03-16T17:45:49;66.97;;;6.20;;
4049;SDS011;2039;50.894;6.888;2023-03-16T17:48:20;68.68;;;6.00;;
4049;SDS011;2039;50.894;6.888;2023-03-16T17:50:50;70.20;;;6.07;;
4049;SDS011;2039;50.894;6.888;2023-03-16T17:53:17;67.70;;;6.28;;
4049;SDS011;2039;50.894;6.888;2023-03-16T17:55:46;73.45;;;6.38;;
4049;SDS011;2039;50.894;6.888;2023-03-16T17:58:23;67.25;;;6.47;;
4049;SDS011;2039;50.894;6.888;2023-03-16T18:00:53;67.75;;;5.20;;
4049;SDS011;2039;50.894;6.888;2023-03-16T18:03:20;68.30;;;6.25;;
4049;SDS011;2039;50.894;6.888;2023-03-16T18:05:51;68.95;;;5.53;;
4049;SDS011;2039;50.894;6.888;2023-03-16T18:08:27;68.90;;;5.50;;
4049;SDS011;2039;50.894;6.888;2023-03-16T18:10:58;67.30;;;5.93;;
4049;SDS011;2039;50.894;6.888;2023-03-16T18:13:30;68.00;;;5.82;;
4049;SDS011;2039;50.894;6.888;2023-03-16T18:15:59;70.15;;;6.20;;
4049;SDS011;2039;50.894;6.888;2023-03-16T18:18:27;66.07;;;5.13;;
4049;SDS011;2039;50.894;6.888;2023-03-16T18:20:59;66.68;;;5.72;;
4049;SDS011;2039;50.894;6.888;2023-03-16T18:23:28;69.28;;;6.13;;
4049;SDS011;2039;50.894;6.888;2023-03-16T18:25:58;67.80;;;5.75;;
4049;SDS011;2039;50.894;6.888;2023-03-16T18:28:31;69.47;;;6.00;;
4049;SDS011;2039;50.894;6.888;2023-03-16T18:31:12;67.18;;;6.13;;
4049;SDS011;2039;50.894;6.888;2023-03-16T18:33:42;67.20;;;5.55;;
4049;SDS011;2039;50.894;6.888;2023-03-16T18:36:19;70.57;;;5.85;;
4049;SDS011;2039;50.894;6.888;2023-03-16T18:38:51;68.45;;;5.93;;
4049;SDS011;2039;50.894;6.888;2023-03-16T18:41:26;76.55;;;6.45;;
4049;SDS011;2039;50.894;6.888;2023-03-16T18:43:55;67.28;;;5.20;;
4049;SDS011;2039;50.894;6.888;2023-03-16T18:46:32;66.82;;;5.93;;
4049;SDS011;2039;50.894;6.888;2023-03-16T18:51:36;66.53;;;5.30;;
4049;SDS011;2039;50.894;6.888;2023-03-16T18:57:13;67.90;;;5.97;;
4049;SDS011;2039;50.894;6.888;2023-03-16T18:59:47;69.80;;;5.38;;
4049;SDS011;2039;50.894;6.888;2023-03-16T19:05:09;69.00;;;6.90;;
4049;SDS011;2039;50.894;6.888;2023-03-16T19:07:43;66.85;;;5.18;;
4049;SDS011;2039;50.894;6.888;2023-03-16T19:10:21;68.45;;;5.65;;
4049;SDS011;2039;50.894;6.888;2023-03-16T19:13:22;67.57;;;5.93;;
4049;SDS011;2039;50.894;6.888;2023-03-16T19:15:54;68.00;;;5.72;;
4049;SDS011;2039;50.894;6.888;2023-03-16T19:18:28;66.97;;;5.65;;
4049;SDS011;2039;50.894;6.888;2023-03-16T19:21:40;67.72;;;6.47;;
4049;SDS011;2039;50.894;6.888;2023-03-16T19:24:05;68.85;;;5.88;;
4049;SDS011;2039;50.894;6.888;2023-03-16T19:26:32;67.07;;;5.70;;
4049;SDS011;2039;50.894;6.888;2023-03-16T19:31:46;66.43;;;5.22;;
4049;SDS011;2039;50.894;6.888;2023-03-16T19:34:22;70.15;;;5.82;;
4049;SDS011;2039;50.894;6.888;2023-03-16T19:36:51;69.25;;;6.30;;
4049;SDS011;2039;50.894;6.888;2023-03-16T19:39:21;70.32;;;6.40;;
4049;SDS011;2039;50.894;6.888;2023-03-16T19:41:55;66.95;;;5.97;;
4049;SDS011;2039;50.894;6.888;2023-03-16T19:44:56;67.72;;;5.97;;
4049;SDS011;2039;50.894;6.888;2023-03-16T19:47:26;70.97;;;6.15;;
4049;SDS011;2039;50.894;6.888;2023-03-16T19:50:13;69.47;;;6.45;;
4049;SDS011;2039;50.894;6.888;2023-03-16T19:52:53;67.35;;;6.40;;
4049;SDS011;2039;50.894;6.888;2023-03-16T19:55:29;67.90;;;6.70;;
4049;SDS011;2039;50.894;6.888;2023-03-16T19:58:04;68.72;;;6.47;;
4049;SDS011;2039;50.894;6.888;2023-03-16T20:00:36;68.10;;;6.30;;
4049;SDS011;2039;50.894;6.888;2023-03-16T20:03:19;68.55;;;5.93;;
4049;SDS011;2039;50.894;6.888;2023-03-16T20:05:48;66.43;;;6.45;;
4049;SDS011;2039;50.894;6.888;2023-03-16T20:08:18;69.13;;;6.32;;
4049;SDS011;2039;50.894;6.888;2023-03-16T20:10:47;70.20;;;6.53;;
4049;SDS011;2039;50.894;6.888;2023-03-16T20:13:18;69.97;;;6.43;;
4049;SDS011;2039;50.894;6.888;2023-03-16T20:15:46;69.07;;;6.47;;
4049;SDS011;2039;50.894;6.888;2023-03-16T20:18:33;67.25;;;6.47;;
4049;SDS011;2039;50.894;6.888;2023-03-16T20:20:59;70.35;;;6.75;;
4049;SDS011;2039;50.894;6.888;2023-03-16T20:23:30;66.90;;;6.40;;
4049;SDS011;2039;50.894;6.888;2023-03-16T20:26:00;71.70;;;6.65;;
4049;SDS011;2039;50.894;6.888;2023-03-16T20:28:35;72.20;;;6.07;;
4049;SDS011;2039;50.894;6.888;2023-03-16T20:31:06;68.10;;;6.80;;
4049;SDS011;2039;50.894;6.888;2023-03-16T20:33:43;69.50;;;6.35;;
4049;SDS011;2039;50.894;6.888;2023-03-16T20:36:12;68.30;;;6.43;;
4049;SDS011;2039;50.894;6.888;2023-03-16T20:38:39;67.57;;;6.75;;
4049;SDS011;2039;50.894;6.888;2023-03-16T20:41:31;70.90;;;6.88;;
4049;SDS011;2039;50.894;6.888;2023-03-16T20:43:57;72.05;;;6.25;;
4049;SDS011;2039;50.894;6.888;2023-03-16T20:46:24;68.35;;;7.38;;
4049;SDS011;2039;50.894;6.888;2023-03-16T20:48:55;67.43;;;6.47;;
4049;SDS011;2039;50.894;6.888;2023-03-16T20:51:24;67.53;;;6.15;;
4049;SDS011;2039;50.894;6.888;2023-03-16T20:53:57;67.38;;;6.88;;
4049;SDS011;2039;50.894;6.888;2023-03-16T20:56:31;67.10;;;6.88;;
4049;SDS011;2039;50.894;6.888;2023-03-16T20:58:57;69.25;;;7.40;;
4049;SDS011;2039;50.894;6.888;2023-03-16T21:01:36;66.97;;;6.43;;
4049;SDS011;2039;50.894;6.888;2023-03-16T21:04:08;66.28;;;5.90;;
4049;SDS011;2039;50.894;6.888;2023-03-16T21:06:45;66.75;;;5.93;;